sensor_id;sensor_type;location;lat;lon;timestamp;P1;durP1;ratioP1;P2;durP2;ratioP2
2107;SDS011;1060;52.492;13.388;2022-10-16T00:38:11;5.20;;;4.77;;
2107;SDS011;1060;52.492;13.388;2022-10-16T01:36:22;2.30;;;2.10;;
2107;SDS011;1060;52.492;13.388;2022-10-16T01:39:45;2.53;;;2.33;;
2107;SDS011;1060;52.492;13.388;2022-10-16T01:48:48;5.10;;;3.43;;
2107;SDS011;1060;52.492;13.388;2022-10-16T01:54:57;3.47;;;3.20;;
2107;SDS011;1060;52.492;13.388;2022-10-16T02:01:30;3.10;;;2.57;;
2107;SDS011;1060;52.492;13.388;2022-10-16T02:07:42;4.27;;;3.90;;
2107;SDS011;1060;52.492;13.388;2022-10-16T02:10:19;2.60;;;2.47;;
2107;SDS011;1060;52.492;13.388;2022-10-16T02:19:18;3.40;;;2.57;;
2107;SDS011;1060;52.492;13.388;2022-10-16T02:28:46;3.63;;;2.80;;
2107;SDS011;1060;52.492;13.388;2022-10-16T02:31:31;3.30;;;2.30;;
2107;SDS011;1060;52.492;13.388;2022-10-16T02:34:34;2.87;;;2.67;;
2107;SDS011;1060;52.492;13.388;2022-10-16T02:37:44;2.33;;;2.13;;
2107;SDS011;1060;52.492;13.388;2022-10-16T02:40:26;1.67;;;1.57;;
2107;SDS011;1060;52.492;13.388;2022-10-16T02:50:16;3.27;;;1.87;;
2107;SDS011;1060;52.492;13.388;2022-10-16T02:53:36;2.23;;;2.00;;
2107;SDS011;1060;52.492;13.388;2022-10-16T02:56:47;2.63;;;2.43;;
2107;SDS011;1060;52.492;13.388;2022-10-16T02:59:38;2.17;;;2.00;;
2107;SDS011;1060;52.492;13.388;2022-10-16T03:02:47;3.17;;;2.63;;
2107;SDS011;1060;52.492;13.388;2022-10-16T03:06:13;3.47;;;2.70;;
2107;SDS011;1060;52.492;13.388;2022-10-16T03:14:56;2.60;;;2.40;;
2107;SDS011;1060;52.492;13.388;2022-10-16T03:17:37;2.23;;;2.10;;
2107;SDS011;1060;52.492;13.388;2022-10-16T03:27:21;2.60;;;2.40;;
2107;SDS011;1060;52.492;13.388;2022-10-16T03:29:58;2.27;;;2.00;;
2107;SDS011;1060;52.492;13.388;2022-10-16T03:33:10;6.00;;;5.40;;
2107;SDS011;1060;52.492;13.388;2022-10-16T03:35:52;2.80;;;2.60;;
2107;SDS011;1060;52.492;13.388;2022-10-16T03:41:56;3.13;;;2.93;;
2107;SDS011;1060;52.492;13.388;2022-10-16T03:45:11;3.30;;;3.10;;
2107;SDS011;1060;52.492;13.388;2022-10-16T03:47:59;5.13;;;2.57;;
2107;SDS011;1060;52.492;13.388;2022-10-16T03:51:28;2.80;;;2.37;;
2107;SDS011;1060;52.492;13.388;2022-10-16T03:53:59;2.27;;;2.13;;
2107;SDS011;1060;52.492;13.388;2022-10-16T03:57:08;2.93;;;2.73;;
2107;SDS011;1060;52.492;13.388;2022-10-16T03:59:58;3.70;;;3.50;;
2107;SDS011;1060;52.492;13.388;2022-10-16T04:10:47;2.47;;;2.37;;
2107;SDS011;1060;52.492;13.388;2022-10-16T04:16:35;4.10;;;2.80;;
2107;SDS011;1060;52.492;13.388;2022-10-16T04:22:47;2.87;;;2.63;;
2107;SDS011;1060;52.492;13.388;2022-10-16T04:26:02;2.70;;;2.13;;
2107;SDS011;1060;52.492;13.388;2022-10-16T04:28:38;2.73;;;2.53;;
2107;SDS011;1060;52.492;13.388;2022-10-16T04:31:34;2.60;;;2.40;;
2107;SDS011;1060;52.492;13.388;2022-10-16T04:41:48;2.60;;;2.40;;
2107;SDS011;1060;52.492;13.388;2022-10-16T04:54:32;3.73;;;3.43;;
2107;SDS011;1060;52.492;13.388;2022-10-16T09:59:20;1.80;;;1.70;;
2107;SDS011;1060;52.492;13.388;2022-10-16T10:02:10;2.07;;;1.97;;
2107;SDS011;1060;52.492;13.388;2022-10-16T10:05:14;3.43;;;1.90;;
2107;SDS011;1060;52.492;13.388;2022-10-16T10:08:03;1.60;;;1.50;;
2107;SDS011;1060;52.492;13.388;2022-10-16T10:10:53;6.33;;;5.80;;
2107;SDS011;1060;52.492;13.388;2022-10-16T11:12:21;6.50;;;2.70;;
2107;SDS011;1060;52.492;13.388;2022-10-16T11:15:30;1.40;;;1.30;;
2107;SDS011;1060;52.492;13.388;2022-10-16T19:48:01;16.03;;;13.53;;
2107;SDS011;1060;52.492;13.388;2022-10-16T19:54:51;12.67;;;11.37;;
2107;SDS011;1060;52.492;13.388;2022-10-16T19:57:54;14.93;;;13.43;;
2107;SDS011;1060;52.492;13.388;2022-10-16T21:16:59;15.03;;;13.47;;
2107;SDS011;1060;52.492;13.388;2022-10-16T21:19:41;14.80;;;13.30;;
2107;SDS011;1060;52.492;13.388;2022-10-16T21:22:44;8.60;;;7.80;;
2107;SDS011;1060;52.492;13.388;2022-10-16T21:25:23;12.27;;;11.07;;
2107;SDS011;1060;52.492;13.388;2022-10-16T21:28:04;16.80;;;15.20;;
2107;SDS011;1060;52.492;13.388;2022-10-16T21:30:45;25.50;;;23.10;;
2107;SDS011;1060;52.492;13.388;2022-10-16T21:33:20;26.87;;;24.07;;
2107;SDS011;1060;52.492;13.388;2022-10-16T21:36:15;12.03;;;8.80;;
2107;SDS011;1060;52.492;13.388;2022-10-16T21:38:51;8.90;;;8.07;;
2107;SDS011;1060;52.492;13.388;2022-10-16T21:41:29;29.07;;;25.97;;
2107;SDS011;1060;52.492;13.388;2022-10-16T21:44:07;14.83;;;13.13;;
2107;SDS011;1060;52.492;13.388;2022-10-16T21:46:37;32.50;;;29.20;;
2107;SDS011;1060;52.492;13.388;2022-10-16T21:49:13;24.13;;;21.77;;
2107;SDS011;1060;52.492;13.388;2022-10-16T21:51:44;22.10;;;20.00;;
2107;SDS011;1060;52.492;13.388;2022-10-16T21:54:21;11.10;;;10.20;;
2107;SDS011;1060;52.492;13.388;2022-10-16T21:57:11;10.37;;;9.00;;
2107;SDS011;1060;52.492;13.388;2022-10-16T21:59:52;11.60;;;10.40;;
2107;SDS011;1060;52.492;13.388;2022-10-16T22:02:26;16.80;;;15.30;;
2107;SDS011;1060;52.492;13.388;2022-10-16T22:05:01;15.20;;;13.80;;
2107;SDS011;1060;52.492;13.388;2022-10-16T22:07:55;18.20;;;16.40;;
2107;SDS011;1060;52.492;13.388;2022-10-16T22:11:11;13.47;;;12.07;;
2107;SDS011;1060;52.492;13.388;2022-10-16T22:13:26;12.63;;;11.43;;
2107;SDS011;1060;52.492;13.388;2022-10-16T22:16:22;11.63;;;10.53;;
2107;SDS011;1060;52.492;13.388;2022-10-16T22:18:58;16.40;;;14.97;;
2107;SDS011;1060;52.492;13.388;2022-10-16T22:21:36;16.80;;;15.20;;
2107;SDS011;1060;52.492;13.388;2022-10-16T22:24:06;20.77;;;17.20;;
2107;SDS011;1060;52.492;13.388;2022-10-16T22:29:22;15.53;;;13.97;;
2107;SDS011;1060;52.492;13.388;2022-10-16T22:31:54;14.43;;;13.03;;
2107;SDS011;1060;52.492;13.388;2022-10-16T22:34:20;15.67;;;14.03;;
2107;SDS011;1060;52.492;13.388;2022-10-16T22:36:52;16.67;;;14.97;;
2107;SDS011;1060;52.492;13.388;2022-10-16T22:39:18;16.33;;;13.57;;
2107;SDS011;1060;52.492;13.388;2022-10-16T22:41:57;13.53;;;11.53;;
2107;SDS011;1060;52.492;13.388;2022-10-16T22:44:35;14.73;;;13.33;;
2107;SDS011;1060;52.492;13.388;2022-10-16T22:47:19;15.83;;;14.23;;
2107;SDS011;1060;52.492;13.388;2022-10-16T22:49:55;18.73;;;16.73;;
2107;SDS011;1060;52.492;13.388;2022-10-16T22:52:30;19.23;;;17.47;;
2107;SDS011;1060;52.492;13.388;2022-10-16T22:54:56;22.23;;;19.97;;
2107;SDS011;1060;52.492;13.388;2022-10-16T22:57:39;38.07;;;33.80;;
2107;SDS011;1060;52.492;13.388;2022-10-16T23:00:19;22.80;;;20.20;;
2107;SDS011;1060;52.492;13.388;2022-10-16T23:02:51;19.97;;;17.97;;
2107;SDS011;1060;52.492;13.388;2022-10-16T23:05:26;17.90;;;16.27;;
2107;SDS011;1060;52.492;13.388;2022-10-16T23:07:55;17.10;;;15.40;;
2107;SDS011;1060;52.492;13.388;2022-10-16T23:10:27;18.17;;;16.43;;
2107;SDS011;1060;52.492;13.388;2022-10-16T23:13:01;17.03;;;15.33;;
2107;SDS011;1060;52.492;13.388;2022-10-16T23:15:52;16.90;;;14.93;;
2107;SDS011;1060;52.492;13.388;2022-10-16T23:18:32;18.63;;;16.80;;
2107;SDS011;1060;52.492;13.388;2022-10-16T23:21:07;18.17;;;16.03;;
2107;SDS011;1060;52.492;13.388;2022-10-16T23:23:50;22.43;;;15.73;;
2107;SDS011;1060;52.492;13.388;2022-10-16T23:26:21;17.50;;;15.80;;
2107;SDS011;1060;52.492;13.388;2022-10-16T23:28:59;16.93;;;15.37;;
2107;SDS011;1060;52.492;13.388;2022-10-16T23:31:26;17.63;;;15.93;;
2107;SDS011;1060;52.492;13.388;2022-10-16T23:33:55;20.30;;;18.40;;
2107;SDS011;1060;52.492;13.388;2022-10-16T23:36:37;22.73;;;20.30;;
2107;SDS011;1060;52.492;13.388;2022-10-16T23:39:06;19.77;;;17.73;;
2107;SDS011;1060;52.492;13.388;2022-10-16T23:41:41;19.27;;;17.57;;
2107;SDS011;1060;52.492;13.388;2022-10-16T23:44:25;16.67;;;15.00;;
2107;SDS011;1060;52.492;13.388;2022-10-16T23:47:46;18.27;;;16.43;;
2107;SDS011;1060;52.492;13.388;2022-10-16T23:49:52;16.67;;;15.10;;
2107;SDS011;1060;52.492;13.388;2022-10-16T23:52:19;17.37;;;15.60;;
2107;SDS011;1060;52.492;13.388;2022-10-16T23:54:54;15.57;;;14.20;;
2107;SDS011;1060;52.492;13.388;2022-10-16T23:57:39;15.30;;;13.93;;
